Coal City, West Virginia
Current Conditions -  °F | °C
As of 2:51 AM on Saturday 20 Dec 2014 (Local Time) from KBKW Reporting Station
Clear Clear  
Wind Chill: 24°   Ceiling: Unl
Heat Index: 24°   Visibility: 10mi
Dew Point: 20°   Wind: 0mph
Humidity: 84%   Direction: NA
Pressure: 30.13"   Gusts: NA
Location:  37.68°N, 81.21°W
Report Text: KBKW 200751Z AUTO 00000KT 10SM CLR M04/M07 A3013 RMK AO2 SLP238 T10441067
Loading
Personal Weather Stations






























Interactive Weather Map New forecast layout! Learn more

10-Day Weather Forecast

Advertisements
Track Severe Weather on mobile